createdAt,value
2023-03-16T00:02:09.982Z,4.56
2023-03-16T00:04:37.716Z,4.56
2023-03-16T00:07:05.704Z,4.50
2023-03-16T00:09:32.388Z,4.50
2023-03-16T00:12:05.066Z,4.63
2023-03-16T00:14:32.435Z,4.63
2023-03-16T00:16:59.127Z,4.63
2023-03-16T00:19:25.679Z,4.56
2023-03-16T00:21:52.943Z,4.63
2023-03-16T00:24:20.404Z,4.56
2023-03-16T00:26:48.170Z,4.50
2023-03-16T00:29:14.842Z,4.50
2023-03-16T00:31:45.194Z,4.56
2023-03-16T00:34:12.272Z,4.50
2023-03-16T00:36:39.166Z,4.50
2023-03-16T00:39:06.876Z,4.50
2023-03-16T00:41:37.898Z,4.63
2023-03-16T00:44:05.564Z,4.50
2023-03-16T00:46:32.768Z,4.50
2023-03-16T00:48:59.371Z,4.56
2023-03-16T00:51:26.000Z,4.63
2023-03-16T00:53:52.711Z,4.56
2023-03-16T00:56:19.368Z,4.56
2023-03-16T00:58:46.024Z,4.56
2023-03-16T01:01:17.275Z,4.56
2023-03-16T01:03:43.986Z,4.56
2023-03-16T01:06:15.181Z,4.56
2023-03-16T01:08:42.887Z,4.56
2023-03-16T01:11:18.661Z,4.56
2023-03-16T01:13:49.503Z,4.56
2023-03-16T01:16:19.388Z,4.63
2023-03-16T01:18:47.681Z,4.56
2023-03-16T01:21:14.266Z,4.56
2023-03-16T01:23:41.241Z,4.56
2023-03-16T01:26:08.335Z,4.56
2023-03-16T01:28:34.995Z,4.56
2023-03-16T01:31:10.074Z,4.56
2023-03-16T01:33:36.986Z,4.50
2023-03-16T01:36:15.235Z,4.56
2023-03-16T01:38:42.331Z,4.56
2023-03-16T01:41:09.060Z,4.56
2023-03-16T01:43:39.531Z,4.50
2023-03-16T01:46:06.171Z,4.50
2023-03-16T01:48:39.108Z,4.56
2023-03-16T01:51:11.731Z,4.56
2023-03-16T01:53:44.590Z,4.56
2023-03-16T01:56:18.468Z,4.56
2023-03-16T01:58:46.910Z,4.63
2023-03-16T02:01:14.133Z,4.56
2023-03-16T02:03:43.260Z,4.50
2023-03-16T02:06:18.866Z,4.56
2023-03-16T02:08:48.330Z,4.56
2023-03-16T02:11:19.060Z,4.56
2023-03-16T02:13:46.755Z,4.63
2023-03-16T02:16:19.325Z,4.56
2023-03-16T02:18:47.357Z,4.56
2023-03-16T02:21:13.924Z,4.63
2023-03-16T02:23:43.527Z,4.63
2023-03-16T02:26:36.200Z,4.63
2023-03-16T02:29:25.910Z,4.63
2023-03-16T02:31:55.006Z,4.63
2023-03-16T02:34:21.615Z,4.69
2023-03-16T02:36:52.300Z,4.69
2023-03-16T02:39:18.900Z,4.75
2023-03-16T02:41:47.452Z,4.75
2023-03-16T02:44:20.218Z,4.69
2023-03-16T02:46:48.709Z,4.75
2023-03-16T02:49:34.324Z,4.69
2023-03-16T02:52:00.936Z,4.69
2023-03-16T02:54:27.532Z,4.69
2023-03-16T02:56:54.325Z,4.69
2023-03-16T02:59:20.910Z,4.69
2023-03-16T03:01:47.481Z,4.63
2023-03-16T03:04:14.166Z,4.63
2023-03-16T03:06:41.706Z,4.63
2023-03-16T03:09:11.559Z,4.63
2023-03-16T03:11:38.375Z,4.63
2023-03-16T03:14:05.748Z,4.63
2023-03-16T03:16:32.415Z,4.63
2023-03-16T03:18:59.571Z,4.63
2023-03-16T03:21:26.458Z,4.63
2023-03-16T03:23:53.706Z,4.63
2023-03-16T03:26:20.863Z,4.63
2023-03-16T03:28:47.519Z,4.56
2023-03-16T03:31:20.751Z,4.63
2023-03-16T03:33:47.974Z,4.63
2023-03-16T03:36:15.033Z,4.56
2023-03-16T03:38:41.624Z,4.56
2023-03-16T03:41:08.375Z,4.56
2023-03-16T03:43:35.629Z,4.50
2023-03-16T03:46:03.790Z,4.56
2023-03-16T03:48:30.717Z,4.50
2023-03-16T03:50:57.496Z,4.44
2023-03-16T03:53:24.107Z,4.44
2023-03-16T03:55:50.871Z,4.44
2023-03-16T03:58:17.616Z,4.38
2023-03-16T04:00:44.785Z,4.38
2023-03-16T04:03:11.561Z,4.38
2023-03-16T04:05:38.263Z,4.31
2023-03-16T04:08:05.321Z,4.31
2023-03-16T04:10:31.958Z,4.31
2023-03-16T04:12:59.753Z,4.31
2023-03-16T04:15:26.835Z,4.25
2023-03-16T04:17:53.436Z,4.25
2023-03-16T04:20:20.757Z,4.25
2023-03-16T04:22:47.891Z,4.25
2023-03-16T04:25:17.350Z,4.25
2023-03-16T04:27:44.572Z,4.19
2023-03-16T04:30:13.861Z,4.13
2023-03-16T04:32:41.787Z,4.19
2023-03-16T04:35:09.222Z,4.19
2023-03-16T04:37:36.645Z,4.19
2023-03-16T04:40:24.050Z,4.19
2023-03-16T04:42:50.650Z,4.25
2023-03-16T04:45:18.210Z,4.25
2023-03-16T04:47:44.999Z,4.25
2023-03-16T04:50:12.346Z,4.31
2023-03-16T04:52:39.466Z,4.31
2023-03-16T04:55:06.448Z,4.31
2023-03-16T04:57:33.098Z,4.31
2023-03-16T04:59:59.698Z,4.31
2023-03-16T05:02:26.349Z,4.31
2023-03-16T05:04:53.309Z,4.38
2023-03-16T05:07:19.896Z,4.38
2023-03-16T05:09:46.525Z,4.38
2023-03-16T05:12:13.147Z,4.38
2023-03-16T05:14:39.735Z,4.38
2023-03-16T05:17:06.331Z,4.38
2023-03-16T05:19:33.645Z,4.44
2023-03-16T05:22:00.234Z,4.44
2023-03-16T05:24:26.809Z,4.44
2023-03-16T05:26:53.478Z,4.44
2023-03-16T05:29:20.061Z,4.44
2023-03-16T05:31:47.710Z,4.38
2023-03-16T05:34:15.085Z,4.44
2023-03-16T05:36:42.059Z,4.38
2023-03-16T05:39:08.748Z,4.38
2023-03-16T05:41:35.428Z,4.44
2023-03-16T05:44:04.484Z,4.44
2023-03-16T05:46:32.161Z,4.44
2023-03-16T05:48:58.862Z,4.44
2023-03-16T05:51:28.575Z,4.44
2023-03-16T05:53:58.502Z,4.38
2023-03-16T05:56:27.702Z,4.38
2023-03-16T05:58:55.575Z,4.38
2023-03-16T06:01:23.778Z,4.38
2023-03-16T06:03:52.173Z,4.31
2023-03-16T06:06:21.514Z,4.38
2023-03-16T06:08:48.938Z,4.38
2023-03-16T06:11:15.593Z,4.50
2023-03-16T06:13:42.435Z,4.38
2023-03-16T06:16:11.449Z,4.44
2023-03-16T06:18:38.176Z,4.44
2023-03-16T06:21:04.869Z,4.44
2023-03-16T06:23:31.526Z,4.50
2023-03-16T06:25:59.608Z,4.56
2023-03-16T06:28:27.198Z,4.50
2023-03-16T06:30:55.605Z,4.56
2023-03-16T06:33:22.449Z,4.63
2023-03-16T06:35:49.885Z,4.63
2023-03-16T06:38:17.832Z,4.69
2023-03-16T06:40:44.580Z,4.69
2023-03-16T06:43:11.175Z,4.75
2023-03-16T06:45:37.785Z,4.81
2023-03-16T06:48:04.723Z,4.81
2023-03-16T06:50:31.290Z,4.81
2023-03-16T06:52:58.502Z,4.88
2023-03-16T06:55:25.138Z,4.88
2023-03-16T06:57:52.854Z,4.94
2023-03-16T07:00:19.737Z,5.00
2023-03-16T07:02:46.302Z,5.06
2023-03-16T07:05:15.820Z,5.13
2023-03-16T07:07:43.457Z,5.13
2023-03-16T07:10:15.823Z,5.13
2023-03-16T07:12:42.476Z,5.19
2023-03-16T07:15:10.805Z,5.19
2023-03-16T07:17:37.567Z,5.19
2023-03-16T07:20:05.943Z,5.19
2023-03-16T07:22:33.240Z,5.25
2023-03-16T07:24:59.915Z,5.25
2023-03-16T07:27:26.544Z,5.25
2023-03-16T07:29:53.512Z,5.31
2023-03-16T07:32:20.232Z,5.31
2023-03-16T07:34:46.807Z,5.31
2023-03-16T07:37:13.752Z,5.25
2023-03-16T07:39:40.403Z,5.25
2023-03-16T07:42:07.169Z,5.25
2023-03-16T07:44:33.995Z,5.19
2023-03-16T07:47:00.847Z,5.19
2023-03-16T07:49:27.829Z,5.19
2023-03-16T07:51:54.514Z,5.19
2023-03-16T07:54:21.133Z,5.25
2023-03-16T07:56:49.510Z,5.25
2023-03-16T07:59:16.464Z,5.25
2023-03-16T08:01:43.195Z,5.31
2023-03-16T08:04:12.344Z,5.31
2023-03-16T08:06:39.085Z,5.38
2023-03-16T08:09:06.036Z,5.44
2023-03-16T08:11:32.689Z,5.56
2023-03-16T08:13:59.328Z,5.63
2023-03-16T08:16:27.067Z,5.69
2023-03-16T08:18:57.035Z,6.00
2023-03-16T08:21:24.082Z,6.06
2023-03-16T08:23:51.972Z,6.13
2023-03-16T08:26:20.922Z,6.25
2023-03-16T08:28:51.846Z,6.31
2023-03-16T08:31:20.616Z,6.25
2023-03-16T08:33:48.370Z,6.31
2023-03-16T08:36:17.113Z,6.31
2023-03-16T08:38:53.548Z,6.31
2023-03-16T08:41:30.642Z,6.38
2023-03-16T08:43:57.825Z,6.31
2023-03-16T08:46:24.741Z,6.44
2023-03-16T08:48:52.550Z,6.44
2023-03-16T08:51:19.457Z,6.50
2023-03-16T08:53:47.023Z,6.56
2023-03-16T08:56:14.685Z,6.56
2023-03-16T08:58:46.022Z,6.56
2023-03-16T09:01:17.400Z,6.56
2023-03-16T09:03:46.217Z,6.63
2023-03-16T09:06:15.847Z,6.75
2023-03-16T09:08:45.380Z,6.81
2023-03-16T09:11:16.123Z,6.88
2023-03-16T09:13:44.621Z,6.94
2023-03-16T09:16:13.711Z,6.94
2023-03-16T09:18:41.212Z,6.94
2023-03-16T09:21:10.408Z,6.81
2023-03-16T09:23:37.657Z,6.81
2023-03-16T09:26:07.497Z,6.81
2023-03-16T09:28:36.319Z,6.75
2023-03-16T09:31:03.494Z,6.81
2023-03-16T09:33:31.925Z,6.88
2023-03-16T09:35:58.994Z,6.88
2023-03-16T09:38:26.649Z,6.88
2023-03-16T09:41:09.546Z,6.94
2023-03-16T09:43:36.903Z,6.88
2023-03-16T09:46:05.456Z,7.00
2023-03-16T09:48:35.867Z,7.06
2023-03-16T09:51:07.746Z,7.19
2023-03-16T09:53:39.021Z,7.38
2023-03-16T09:56:39.870Z,7.50
2023-03-16T09:59:13.468Z,7.75
2023-03-16T10:01:48.249Z,7.75
2023-03-16T10:04:45.036Z,7.81
2023-03-16T10:07:22.048Z,7.94
2023-03-16T10:10:02.020Z,8.06
2023-03-16T10:12:41.517Z,8.13
2023-03-16T10:15:18.420Z,8.38
2023-03-16T10:18:11.273Z,8.50
2023-03-16T10:20:42.022Z,8.56
2023-03-16T10:23:21.452Z,8.56
2023-03-16T10:25:49.747Z,8.81
2023-03-16T10:28:22.990Z,8.69
2023-03-16T10:30:53.088Z,8.81
2023-03-16T10:33:31.484Z,9.00
2023-03-16T10:35:58.019Z,9.25
2023-03-16T10:38:39.950Z,9.44
2023-03-16T10:41:23.429Z,9.50
2023-03-16T10:43:57.899Z,9.88
2023-03-16T10:46:27.652Z,9.75
2023-03-16T10:49:00.908Z,9.69
2023-03-16T10:51:37.259Z,10.06
2023-03-16T10:54:17.295Z,10.00
2023-03-16T10:56:44.204Z,10.13
2023-03-16T10:59:29.564Z,10.06
2023-03-16T11:01:57.178Z,10.13
2023-03-16T11:04:24.327Z,10.25
2023-03-16T11:06:58.378Z,10.38
2023-03-16T11:09:35.407Z,10.25
2023-03-16T11:12:22.520Z,10.38
2023-03-16T11:14:49.212Z,10.38
2023-03-16T11:17:18.000Z,10.44
2023-03-16T11:20:00.364Z,10.31
2023-03-16T11:22:27.572Z,10.31
2023-03-16T11:25:05.967Z,10.31
2023-03-16T11:27:44.861Z,10.25
2023-03-16T11:30:14.830Z,10.25
2023-03-16T11:32:48.537Z,10.44
2023-03-16T11:35:20.586Z,10.44
2023-03-16T11:38:07.096Z,10.50
2023-03-16T11:41:01.479Z,10.56
2023-03-16T11:43:56.902Z,10.63
2023-03-16T11:46:31.422Z,10.69
2023-03-16T11:49:17.617Z,10.81
2023-03-16T11:52:01.403Z,11.00
2023-03-16T11:54:40.301Z,11.25
2023-03-16T11:57:32.803Z,11.38
2023-03-16T12:00:57.526Z,11.25
2023-03-16T12:03:55.118Z,11.31
2023-03-16T12:06:47.087Z,11.44
2023-03-16T12:09:23.048Z,11.63
2023-03-16T12:12:00.453Z,11.69
2023-03-16T12:14:41.357Z,11.75
2023-03-16T12:17:17.984Z,11.81
2023-03-16T12:19:56.375Z,11.94
2023-03-16T12:22:39.821Z,12.19
2023-03-16T12:25:22.084Z,12.06
2023-03-16T12:27:54.446Z,12.13
2023-03-16T12:30:39.377Z,12.25
2023-03-16T12:33:24.271Z,12.31
2023-03-16T12:36:02.669Z,12.63
2023-03-16T12:38:37.590Z,12.50
2023-03-16T12:41:04.127Z,12.63
2023-03-16T12:44:14.588Z,12.69
2023-03-16T12:47:03.620Z,12.88
2023-03-16T12:49:36.799Z,12.88
2023-03-16T12:52:14.537Z,12.75
2023-03-16T12:55:12.178Z,12.88
2023-03-16T12:57:42.794Z,12.88
2023-03-16T13:00:12.052Z,13.00
2023-03-16T13:02:44.967Z,12.88
2023-03-16T13:05:14.982Z,12.94
2023-03-16T13:07:51.242Z,13.00
2023-03-16T13:10:20.962Z,13.31
2023-03-16T13:12:48.211Z,13.38
2023-03-16T13:15:26.939Z,13.50
2023-03-16T13:18:25.663Z,13.31
2023-03-16T13:21:13.358Z,13.06
2023-03-16T13:24:20.204Z,13.19
2023-03-16T13:26:49.924Z,13.25
2023-03-16T13:29:24.393Z,13.31
2023-03-16T13:31:53.037Z,13.44
2023-03-16T13:34:41.750Z,13.63
2023-03-16T13:37:14.950Z,13.69
2023-03-16T13:39:41.659Z,13.44
2023-03-16T13:42:08.187Z,13.56
2023-03-16T13:44:39.540Z,13.44
2023-03-16T13:47:07.407Z,13.44
2023-03-16T13:49:43.690Z,13.75
2023-03-16T13:52:37.357Z,14.00
2023-03-16T13:55:16.485Z,14.00
2023-03-16T13:57:46.420Z,14.25
2023-03-16T14:00:27.566Z,14.25
2023-03-16T14:02:57.489Z,14.25
2023-03-16T14:05:31.189Z,14.19
2023-03-16T14:08:00.596Z,14.13
2023-03-16T14:10:34.820Z,14.25
2023-03-16T14:13:28.071Z,14.25
2023-03-16T14:16:06.260Z,14.19
2023-03-16T14:18:42.124Z,14.13
2023-03-16T14:21:17.837Z,14.38
2023-03-16T14:23:47.344Z,14.31
2023-03-16T14:26:16.509Z,14.50
2023-03-16T14:28:54.966Z,14.38
2023-03-16T14:31:22.028Z,14.38
2023-03-16T14:33:48.801Z,14.38
2023-03-16T14:36:17.664Z,14.50
2023-03-16T14:38:48.683Z,14.50
2023-03-16T14:41:26.357Z,14.38
2023-03-16T14:43:59.507Z,14.25
2023-03-16T14:46:29.513Z,14.19
2023-03-16T14:49:19.142Z,14.25
2023-03-16T14:51:50.703Z,14.38
2023-03-16T14:54:21.703Z,14.31
2023-03-16T14:56:50.879Z,14.38
2023-03-16T14:59:17.796Z,14.38
2023-03-16T15:01:46.626Z,14.63
2023-03-16T15:04:19.138Z,14.69
2023-03-16T15:06:47.294Z,14.44
2023-03-16T15:09:34.366Z,14.25
2023-03-16T15:12:01.054Z,13.75
2023-03-16T15:14:46.286Z,13.75
2023-03-16T15:17:12.991Z,13.75
2023-03-16T15:19:39.712Z,13.81
2023-03-16T15:22:07.040Z,14.00
2023-03-16T15:24:33.824Z,13.88
2023-03-16T15:27:01.064Z,14.06
2023-03-16T15:29:27.754Z,14.13
2023-03-16T15:31:54.748Z,14.31
2023-03-16T15:34:22.669Z,14.56
2023-03-16T15:36:49.656Z,14.75
2023-03-16T15:39:25.089Z,14.88
2023-03-16T15:41:51.825Z,14.69
2023-03-16T15:44:18.524Z,14.50
2023-03-16T15:46:45.186Z,14.38
2023-03-16T15:49:12.177Z,14.31
2023-03-16T15:51:38.807Z,14.25
2023-03-16T15:54:09.490Z,14.19
2023-03-16T15:56:53.134Z,14.25
2023-03-16T15:59:23.357Z,14.50
2023-03-16T16:01:52.646Z,14.38
2023-03-16T16:04:22.576Z,14.50
2023-03-16T16:06:52.901Z,14.63
2023-03-16T16:09:19.499Z,14.56
2023-03-16T16:11:48.438Z,14.44
2023-03-16T16:14:17.270Z,14.19
2023-03-16T16:16:45.907Z,14.19
2023-03-16T16:19:16.680Z,14.13
2023-03-16T16:21:43.898Z,14.13
2023-03-16T16:24:11.390Z,14.19
2023-03-16T16:26:49.886Z,14.13
2023-03-16T16:29:22.387Z,14.13
2023-03-16T16:31:49.185Z,13.88
2023-03-16T16:34:21.043Z,13.81
2023-03-16T16:36:48.964Z,13.81
2023-03-16T16:39:15.647Z,13.88
2023-03-16T16:41:44.207Z,13.81
2023-03-16T16:44:27.429Z,13.81
2023-03-16T16:46:55.410Z,13.69
2023-03-16T16:49:25.041Z,13.88
2023-03-16T16:51:53.509Z,13.75
2023-03-16T16:54:23.645Z,13.56
2023-03-16T16:56:53.680Z,13.56
2023-03-16T16:59:23.609Z,13.31
2023-03-16T17:01:53.775Z,13.19
2023-03-16T17:04:24.769Z,13.06
2023-03-16T17:06:55.433Z,12.81
2023-03-16T17:09:23.276Z,12.88
2023-03-16T17:11:51.125Z,12.81
2023-03-16T17:14:21.267Z,12.63
2023-03-16T17:16:50.390Z,12.56
2023-03-16T17:19:25.707Z,12.44
2023-03-16T17:21:55.535Z,12.31
2023-03-16T17:24:22.676Z,12.25
2023-03-16T17:26:54.010Z,12.13
2023-03-16T17:29:32.889Z,12.06
2023-03-16T17:32:01.818Z,11.94
2023-03-16T17:34:31.941Z,11.88
2023-03-16T17:36:58.592Z,11.81
2023-03-16T17:39:30.273Z,11.69
2023-03-16T17:42:00.192Z,11.56
2023-03-16T17:44:35.574Z,11.44
2023-03-16T17:47:02.469Z,11.31
2023-03-16T17:49:30.663Z,11.31
2023-03-16T17:51:57.436Z,11.19
2023-03-16T17:54:24.044Z,11.06
2023-03-16T17:56:53.664Z,10.94
2023-03-16T17:59:21.920Z,10.81
2023-03-16T18:01:49.120Z,10.56
2023-03-16T18:04:25.985Z,10.56
2023-03-16T18:06:52.838Z,10.50
2023-03-16T18:09:20.545Z,10.31
2023-03-16T18:11:50.228Z,10.31
2023-03-16T18:14:38.415Z,10.19
2023-03-16T18:17:29.033Z,10.25
2023-03-16T18:19:55.793Z,10.31
2023-03-16T18:22:24.745Z,10.25
2023-03-16T18:24:53.935Z,10.06
2023-03-16T18:27:21.214Z,10.13
2023-03-16T18:29:48.798Z,10.13
2023-03-16T18:32:25.185Z,10.13
2023-03-16T18:34:53.186Z,10.00
2023-03-16T18:37:24.035Z,10.00
2023-03-16T18:39:53.141Z,9.81
2023-03-16T18:42:28.467Z,9.81
2023-03-16T18:44:55.535Z,9.75
2023-03-16T18:47:26.827Z,9.69
2023-03-16T18:49:54.164Z,9.75
2023-03-16T18:52:29.146Z,9.75
2023-03-16T18:54:57.714Z,9.63
2023-03-16T18:57:28.731Z,9.50
2023-03-16T18:59:55.440Z,9.38
2023-03-16T19:02:28.635Z,9.44
2023-03-16T19:04:58.698Z,9.38
2023-03-16T19:07:42.097Z,9.31
2023-03-16T19:10:23.603Z,9.38
2023-03-16T19:12:51.423Z,9.38
2023-03-16T19:15:32.663Z,9.31
2023-03-16T19:17:59.712Z,9.31
2023-03-16T19:20:32.514Z,9.31
2023-03-16T19:23:24.364Z,9.13
2023-03-16T19:25:53.194Z,9.13
2023-03-16T19:28:33.840Z,9.00
2023-03-16T19:31:03.268Z,8.94
2023-03-16T19:33:29.963Z,8.81
2023-03-16T19:35:57.624Z,8.63
2023-03-16T19:38:25.769Z,8.50
2023-03-16T19:40:56.653Z,8.63
2023-03-16T19:43:24.810Z,8.75
2023-03-16T19:45:52.634Z,8.75
2023-03-16T19:48:26.812Z,8.81
2023-03-16T19:50:53.411Z,8.75
2023-03-16T19:53:22.490Z,8.75
2023-03-16T19:55:52.079Z,8.75
2023-03-16T19:58:38.586Z,8.81
2023-03-16T20:01:13.500Z,8.81
2023-03-16T20:03:40.120Z,8.75
2023-03-16T20:06:09.630Z,8.69
2023-03-16T20:08:36.639Z,8.69
2023-03-16T20:11:06.515Z,8.63
2023-03-16T20:13:34.947Z,8.44
2023-03-16T20:16:03.336Z,8.31
2023-03-16T20:18:30.164Z,8.31
2023-03-16T20:20:57.302Z,8.38
2023-03-16T20:23:27.182Z,8.44
2023-03-16T20:25:56.682Z,8.19
2023-03-16T20:28:28.994Z,8.31
2023-03-16T20:30:55.658Z,8.38
2023-03-16T20:33:25.370Z,8.31
2023-03-16T20:35:56.275Z,8.50
2023-03-16T20:38:23.581Z,8.69
2023-03-16T20:40:52.765Z,8.75
2023-03-16T20:43:32.701Z,8.75
2023-03-16T20:46:02.329Z,8.69
2023-03-16T20:48:29.308Z,8.69
2023-03-16T20:50:57.227Z,8.75
2023-03-16T20:53:24.184Z,8.75
2023-03-16T20:55:52.322Z,8.75
2023-03-16T20:58:24.387Z,8.75
2023-03-16T21:00:57.377Z,8.69
2023-03-16T21:03:27.605Z,8.75
2023-03-16T21:05:58.443Z,8.81
2023-03-16T21:08:26.368Z,8.75
2023-03-16T21:10:56.709Z,8.75
2023-03-16T21:13:33.359Z,8.75
2023-03-16T21:16:03.428Z,8.69
2023-03-16T21:18:30.902Z,8.75
2023-03-16T21:20:58.766Z,8.75
2023-03-16T21:23:25.776Z,8.63
2023-03-16T21:26:03.667Z,8.63
2023-03-16T21:28:33.902Z,8.63
2023-03-16T21:31:03.006Z,8.50
2023-03-16T21:33:34.986Z,8.44
2023-03-16T21:36:04.300Z,8.50
2023-03-16T21:38:32.376Z,8.44
2023-03-16T21:40:59.789Z,8.31
2023-03-16T21:43:27.619Z,8.31
2023-03-16T21:45:55.208Z,8.31
2023-03-16T21:48:25.180Z,8.31
2023-03-16T21:50:53.809Z,8.25
2023-03-16T21:53:24.664Z,8.19
2023-03-16T21:55:51.940Z,8.19
2023-03-16T21:58:19.056Z,8.19
2023-03-16T22:00:47.191Z,8.19
2023-03-16T22:03:22.682Z,8.13
2023-03-16T22:05:49.470Z,8.13
2023-03-16T22:08:25.490Z,8.13
2023-03-16T22:10:52.352Z,8.06
2023-03-16T22:13:20.415Z,7.94
2023-03-16T22:15:51.513Z,8.06
2023-03-16T22:18:36.873Z,8.00
2023-03-16T22:21:22.534Z,8.00
2023-03-16T22:23:50.598Z,7.94
2023-03-16T22:26:20.915Z,7.94
2023-03-16T22:28:48.147Z,7.88
2023-03-16T22:31:19.487Z,7.94
2023-03-16T22:33:48.595Z,7.88
2023-03-16T22:36:19.737Z,7.94
2023-03-16T22:38:55.464Z,7.88
2023-03-16T22:41:23.176Z,7.81
2023-03-16T22:43:50.231Z,7.88
2023-03-16T22:46:23.564Z,7.88
2023-03-16T22:48:52.091Z,7.75
2023-03-16T22:51:38.996Z,7.69
2023-03-16T22:54:12.470Z,7.75
2023-03-16T22:56:39.916Z,7.75
2023-03-16T22:59:13.517Z,7.81
2023-03-16T23:01:45.456Z,7.75
2023-03-16T23:04:24.731Z,7.75
2023-03-16T23:06:53.453Z,7.75
2023-03-16T23:09:21.843Z,7.81
2023-03-16T23:11:53.997Z,7.81
2023-03-16T23:14:27.653Z,7.94
2023-03-16T23:16:54.782Z,7.94
2023-03-16T23:19:32.227Z,8.06
2023-03-16T23:22:04.987Z,8.13
2023-03-16T23:24:35.531Z,8.13
2023-03-16T23:27:03.636Z,8.13
2023-03-16T23:29:31.755Z,8.13
2023-03-16T23:31:58.405Z,8.06
2023-03-16T23:34:25.595Z,8.06
2023-03-16T23:36:52.666Z,8.13
2023-03-16T23:39:19.278Z,8.13
2023-03-16T23:41:48.470Z,8.19
2023-03-16T23:44:22.087Z,8.13
2023-03-16T23:46:49.760Z,8.06
2023-03-16T23:49:23.542Z,8.06
2023-03-16T23:51:50.971Z,8.00
2023-03-16T23:54:24.511Z,7.88
2023-03-16T23:56:51.378Z,7.88
2023-03-16T23:59:20.319Z,7.81
